Robeline, Louisiana
Current Conditions -  °F | °C
As of 3:35 AM on Tuesday 21 Oct 2014 (Local Time) from KIER Reporting Station
Clear Clear  
Wind Chill: 12°   Ceiling: Unl
Heat Index: 12°   Visibility: 10mi
Dew Point: 12°   Wind: 0mph
Humidity: 99%   Direction: NA
Pressure: 30.03"   Gusts: NA
Location:  31.69°N, 93.3°W
Report Text: KIER 210835Z AUTO 00000KT 10SM CLR 12/12 A3003 RMK AO2 T01200119
Loading
Personal Weather Stations






























Interactive Weather Map
Tropical Storm Tracking
New forecast layout! Learn more

10-Day Weather Forecast

Advertisements
Track Severe Weather on mobile